LFMP/PGF METAR and TAF weather

Enter ICAO airport designator
Station Type Date Time Source
LFMP METAR 2024/04/17 17:30 UTC NOAA

LFMP 171730Z AUTO 31016KT 280V340 9999 SCT062 BKN076 16/03 Q1014 BECMG 31015G25KT


Station Type Date Time Source
LFMP Decoded METAR 2024/04/17 17:30 UTC NOAA

Perpignan, France (LFMP) 42-44N 002-52E 48M
Apr 17, 2024 - 01:30 PM EDT / 2024.04.17 1730 UTC
Wind: from the NW (310 degrees) at 18 MPH (16 KT) (direction variable):0
Visibility: greater than 7 mile(s):0
Sky conditions: mostly cloudy
Temperature: 60 F (16 C)
Dew Point: 37 F (3 C)
Relative Humidity: 41%
Pressure (altimeter): 29.94 in. Hg (1014 hPa)
ob: LFMP 171730Z AUTO 31016KT 280V340 9999 SCT062 BKN076 16/03 Q1014 BECMG 31015G25KT
cycle: 17

Station Type Date Time Source
LFMP TAF 2024/04/17 15:22 UTC NOAA